createdAt,value
2018-08-19T00:00:08.982Z,12.10
2018-08-19T00:02:37.508Z,11.23
2018-08-19T00:05:16.062Z,11.93
2018-08-19T00:07:44.691Z,14.07
2018-08-19T00:10:13.270Z,14.67
2018-08-19T00:12:46.741Z,13.87
2018-08-19T00:15:15.794Z,14.50
2018-08-19T00:17:44.734Z,14.00
2018-08-19T00:20:14.029Z,14.90
2018-08-19T00:22:42.561Z,13.80
2018-08-19T00:25:15.838Z,12.63
2018-08-19T00:27:44.387Z,13.97
2018-08-19T00:30:12.865Z,13.20
2018-08-19T00:32:41.030Z,15.17
2018-08-19T00:35:09.567Z,14.63
2018-08-19T00:37:37.720Z,16.00
2018-08-19T00:40:10.516Z,15.03
2018-08-19T00:42:39.069Z,13.97
2018-08-19T00:45:07.250Z,13.33
2018-08-19T00:47:35.784Z,14.10
2018-08-19T00:50:04.332Z,14.40
2018-08-19T00:52:32.756Z,14.30
2018-08-19T00:55:01.321Z,14.07
2018-08-19T00:57:29.808Z,12.90
2018-08-19T00:59:57.945Z,14.93
2018-08-19T01:02:26.471Z,15.70
2018-08-19T01:04:54.981Z,16.00
2018-08-19T01:07:23.437Z,15.67
2018-08-19T01:09:52.362Z,16.10
2018-08-19T01:12:22.175Z,18.30
2018-08-19T01:14:50.823Z,17.07
2018-08-19T01:17:26.632Z,16.10
2018-08-19T01:19:59.338Z,15.77
2018-08-19T01:22:27.817Z,18.93
2018-08-19T01:24:56.435Z,17.60
2018-08-19T01:27:24.961Z,17.60
2018-08-19T01:29:53.195Z,16.20
2018-08-19T01:32:21.409Z,16.57
2018-08-19T01:34:49.930Z,21.50
2018-08-19T01:37:18.129Z,16.40
2018-08-19T01:39:46.652Z,17.07
2018-08-19T01:42:15.135Z,16.40
2018-08-19T01:44:43.303Z,17.60
2018-08-19T01:47:11.793Z,15.57
2018-08-19T01:49:40.311Z,17.20
2018-08-19T01:52:08.821Z,15.87
2018-08-19T01:54:37.297Z,16.40
2018-08-19T01:57:06.670Z,17.43
2018-08-19T01:59:35.846Z,17.30
2018-08-19T02:02:05.579Z,16.70
2018-08-19T02:04:41.031Z,18.23
2018-08-19T02:07:09.480Z,19.23
2018-08-19T02:09:51.340Z,18.00
2018-08-19T02:12:19.854Z,19.10
2018-08-19T02:14:48.020Z,19.07
2018-08-19T02:17:16.567Z,19.73
2018-08-19T02:19:45.030Z,15.63
2018-08-19T02:22:13.492Z,17.00
2018-08-19T02:24:43.408Z,18.43
2018-08-19T02:27:12.007Z,16.37
2018-08-19T02:29:40.451Z,18.20
2018-08-19T02:32:10.119Z,17.23
2018-08-19T02:34:41.058Z,16.90
2018-08-19T02:37:13.808Z,16.97
2018-08-19T02:39:44.598Z,17.97
2018-08-19T02:42:22.152Z,17.80
2018-08-19T02:44:52.150Z,19.00
2018-08-19T02:47:20.660Z,18.33
2018-08-19T02:49:49.079Z,17.73
2018-08-19T02:52:48.034Z,17.47
2018-08-19T02:55:16.729Z,18.13
2018-08-19T02:57:45.254Z,19.60
2018-08-19T03:00:13.856Z,19.97
2018-08-19T03:02:43.145Z,18.57
2018-08-19T03:05:14.125Z,19.07
2018-08-19T03:07:43.020Z,17.93
2018-08-19T03:10:15.865Z,18.50
2018-08-19T03:12:45.145Z,17.60
2018-08-19T03:15:15.359Z,17.20
2018-08-19T03:17:47.959Z,18.83
2018-08-19T03:20:16.510Z,19.43
2018-08-19T03:22:45.114Z,16.90
2018-08-19T03:25:13.638Z,18.60
2018-08-19T03:27:42.316Z,17.50
2018-08-19T03:30:13.982Z,17.00
2018-08-19T03:32:48.560Z,18.80
2018-08-19T03:35:18.584Z,17.97
2018-08-19T03:37:49.657Z,19.00
2018-08-19T03:40:18.333Z,17.50
2018-08-19T03:42:46.970Z,20.53
2018-08-19T03:45:19.361Z,17.93
2018-08-19T03:47:48.564Z,17.13
2018-08-19T03:50:20.286Z,16.90
2018-08-19T03:52:48.565Z,16.87
2018-08-19T03:55:24.330Z,18.90
2018-08-19T03:57:52.989Z,19.63
2018-08-19T04:00:21.533Z,20.17
2018-08-19T04:02:50.151Z,20.73
2018-08-19T04:05:30.601Z,19.10
2018-08-19T04:07:58.881Z,21.53
2018-08-19T04:10:27.746Z,19.73
2018-08-19T04:12:56.015Z,19.70
2018-08-19T04:15:24.502Z,18.60
2018-08-19T04:17:52.662Z,19.23
2018-08-19T04:20:21.246Z,19.20
2018-08-19T04:22:49.777Z,19.90
2018-08-19T04:25:22.448Z,23.00
2018-08-19T04:27:50.952Z,21.47
2018-08-19T04:30:19.429Z,20.20
2018-08-19T04:32:47.968Z,21.80
2018-08-19T04:35:16.454Z,19.73
2018-08-19T04:37:45.496Z,19.90
2018-08-19T04:40:13.989Z,20.33
2018-08-19T04:42:42.317Z,22.20
2018-08-19T04:45:10.882Z,22.00
2018-08-19T04:47:39.534Z,21.13
2018-08-19T04:50:08.017Z,21.23
2018-08-19T04:52:36.573Z,20.37
2018-08-19T04:55:05.029Z,21.10
2018-08-19T04:57:33.970Z,21.07
2018-08-19T05:00:02.517Z,22.30
2018-08-19T05:02:31.088Z,22.20
2018-08-19T05:05:00.593Z,20.87
2018-08-19T05:07:29.477Z,22.53
2018-08-19T05:09:59.230Z,21.47
2018-08-19T05:12:27.807Z,22.50
2018-08-19T05:14:56.704Z,22.37
2018-08-19T05:17:24.903Z,22.10
2018-08-19T05:20:02.019Z,22.33
2018-08-19T05:22:30.592Z,21.50
2018-08-19T05:24:59.161Z,21.30
2018-08-19T05:27:27.683Z,22.63
2018-08-19T05:29:56.155Z,20.60
2018-08-19T05:32:24.621Z,22.33
2018-08-19T05:34:53.114Z,20.30
2018-08-19T05:37:21.647Z,20.53
2018-08-19T05:39:57.439Z,19.07
2018-08-19T05:42:26.057Z,20.37
2018-08-19T05:44:54.595Z,18.80
2018-08-19T05:47:23.130Z,21.23
2018-08-19T05:49:51.315Z,20.87
2018-08-19T05:52:23.046Z,18.53
2018-08-19T05:54:58.021Z,20.70
2018-08-19T05:57:34.046Z,21.43
2018-08-19T06:00:07.729Z,20.77
2018-08-19T06:02:41.538Z,20.43
2018-08-19T06:05:12.119Z,21.90
2018-08-19T06:07:40.621Z,22.40
2018-08-19T06:10:09.074Z,19.40
2018-08-19T06:12:37.564Z,18.70
2018-08-19T06:15:06.182Z,20.53
2018-08-19T06:17:34.663Z,18.90
2018-08-19T06:20:03.276Z,19.77
2018-08-19T06:22:41.421Z,18.40
2018-08-19T06:25:12.965Z,18.20
2018-08-19T06:27:47.352Z,18.67
2018-08-19T06:30:17.697Z,18.43
2018-08-19T06:32:46.468Z,17.37
2018-08-19T06:35:18.253Z,18.20
2018-08-19T06:37:53.694Z,16.37
2018-08-19T06:40:23.324Z,17.97
2018-08-19T06:42:51.494Z,15.80
2018-08-19T06:45:20.163Z,17.03
2018-08-19T06:47:48.681Z,15.80
2018-08-19T06:50:26.182Z,15.77
2018-08-19T06:52:55.286Z,16.87
2018-08-19T06:55:24.074Z,16.67
2018-08-19T06:57:52.995Z,16.30
2018-08-19T07:00:29.427Z,15.93
2018-08-19T07:03:00.857Z,15.30
2018-08-19T07:05:35.185Z,15.20
2018-08-19T07:08:03.969Z,14.27
2018-08-19T07:10:40.547Z,15.70
2018-08-19T07:13:12.179Z,14.87
2018-08-19T07:15:41.907Z,15.67
2018-08-19T07:18:12.376Z,14.90
2018-08-19T07:20:41.758Z,14.97
2018-08-19T07:23:10.830Z,16.27
2018-08-19T07:25:41.157Z,13.70
2018-08-19T07:28:10.496Z,13.93
2018-08-19T07:30:39.090Z,13.50
2018-08-19T07:33:07.792Z,14.20
2018-08-19T07:35:36.506Z,15.30
2018-08-19T07:38:05.027Z,12.50
2018-08-19T07:40:33.752Z,13.40
2018-08-19T07:43:02.268Z,12.50
2018-08-19T07:45:30.754Z,13.37
2018-08-19T07:47:59.264Z,13.60
2018-08-19T07:50:27.765Z,13.43
2018-08-19T07:52:56.301Z,12.70
2018-08-19T07:55:25.081Z,11.97
2018-08-19T07:57:53.605Z,13.23
2018-08-19T08:00:27.563Z,14.50
2018-08-19T08:02:56.054Z,12.90
2018-08-19T08:05:26.739Z,12.60
2018-08-19T08:08:03.790Z,13.13
2018-08-19T08:10:32.785Z,13.03
2018-08-19T08:13:10.539Z,12.57
2018-08-19T08:15:44.480Z,12.57
2018-08-19T08:18:17.527Z,11.77
2018-08-19T08:20:45.812Z,11.30
2018-08-19T08:23:26.215Z,11.80
2018-08-19T08:25:57.483Z,11.93
2018-08-19T08:28:25.801Z,12.60
2018-08-19T08:30:54.891Z,12.97
2018-08-19T08:33:23.170Z,11.10
2018-08-19T08:35:55.989Z,12.43
2018-08-19T08:38:24.488Z,10.87
2018-08-19T08:40:53.237Z,14.70
2018-08-19T08:43:22.228Z,10.80
2018-08-19T08:45:50.691Z,10.20
2018-08-19T08:48:19.149Z,11.57
2018-08-19T08:50:47.584Z,10.70
2018-08-19T08:53:16.115Z,10.57
2018-08-19T08:55:44.608Z,10.60
2018-08-19T08:58:13.059Z,10.13
2018-08-19T09:00:41.590Z,10.70
2018-08-19T09:03:10.143Z,10.60
2018-08-19T09:05:38.615Z,11.50
2018-08-19T09:08:06.794Z,9.63
2018-08-19T09:10:35.301Z,9.43
2018-08-19T09:13:03.804Z,8.47
2018-08-19T09:15:37.264Z,9.47
2018-08-19T09:18:10.678Z,9.60
2018-08-19T09:20:48.351Z,8.27
2018-08-19T09:23:24.868Z,9.07
2018-08-19T09:25:53.919Z,9.40
2018-08-19T09:28:22.464Z,8.67
2018-08-19T09:30:51.009Z,9.27
2018-08-19T09:33:24.477Z,9.50
2018-08-19T09:35:53.131Z,10.97
2018-08-19T09:38:29.401Z,8.30
2018-08-19T09:40:58.684Z,8.03
2018-08-19T09:43:27.341Z,8.87
2018-08-19T09:45:56.664Z,9.30
2018-08-19T09:48:26.479Z,8.40
2018-08-19T09:50:56.538Z,7.70
2018-08-19T09:53:25.127Z,8.27
2018-08-19T09:56:04.728Z,8.60
2018-08-19T09:58:36.209Z,7.47
2018-08-19T10:01:21.856Z,7.67
2018-08-19T10:03:50.468Z,7.50
2018-08-19T10:06:19.192Z,8.10
2018-08-19T10:08:48.171Z,7.57
2018-08-19T10:11:16.702Z,7.90
2018-08-19T10:13:46.028Z,6.40
2018-08-19T10:16:14.533Z,5.70
2018-08-19T10:18:43.017Z,5.83
2018-08-19T10:21:18.335Z,5.60
2018-08-19T10:23:46.859Z,4.67
2018-08-19T10:26:15.384Z,5.33
2018-08-19T10:28:44.299Z,4.43
2018-08-19T10:31:20.426Z,4.23
2018-08-19T10:33:51.416Z,4.67
2018-08-19T10:36:20.055Z,5.50
2018-08-19T10:38:48.632Z,4.70
2018-08-19T10:41:17.313Z,4.27
2018-08-19T10:43:45.866Z,4.67
2018-08-19T10:46:14.346Z,3.60
2018-08-19T10:48:42.849Z,3.70
2018-08-19T10:51:11.404Z,4.50
2018-08-19T10:53:42.392Z,3.90
2018-08-19T10:56:11.023Z,4.53
2018-08-19T10:58:45.186Z,3.80
2018-08-19T11:01:13.730Z,4.67
2018-08-19T11:03:42.270Z,4.17
2018-08-19T11:06:10.851Z,3.90
2018-08-19T11:08:43.536Z,4.57
2018-08-19T11:11:12.125Z,4.93
2018-08-19T11:13:40.660Z,4.70
2018-08-19T11:16:09.315Z,4.50
2018-08-19T11:18:41.714Z,3.97
2018-08-19T11:21:25.515Z,4.07
2018-08-19T11:23:54.644Z,4.20
2018-08-19T11:26:23.626Z,4.13
2018-08-19T11:28:54.247Z,4.00
2018-08-19T11:31:28.275Z,4.00
2018-08-19T11:33:58.963Z,4.70
2018-08-19T11:36:33.874Z,4.47
2018-08-19T11:39:02.430Z,4.80
2018-08-19T11:41:33.600Z,3.87
2018-08-19T11:44:09.730Z,4.60
2018-08-19T11:46:38.300Z,4.30
2018-08-19T11:49:13.261Z,3.83
2018-08-19T11:51:49.084Z,3.50
2018-08-19T11:54:18.581Z,4.70
2018-08-19T11:56:57.197Z,4.53
2018-08-19T11:59:42.459Z,4.30
2018-08-19T12:02:17.137Z,5.20
2018-08-19T12:04:46.110Z,4.57
2018-08-19T12:07:15.139Z,4.83
2018-08-19T12:09:49.602Z,4.40
2018-08-19T12:12:18.162Z,4.43
2018-08-19T12:14:46.325Z,4.00
2018-08-19T12:17:15.004Z,4.50
2018-08-19T12:19:44.443Z,4.60
2018-08-19T12:22:13.049Z,4.63
2018-08-19T12:24:43.836Z,4.83
2018-08-19T12:27:13.569Z,4.33
2018-08-19T12:29:43.053Z,4.50
2018-08-19T12:32:16.139Z,4.90
2018-08-19T12:34:47.773Z,4.50
2018-08-19T12:37:17.419Z,4.40
2018-08-19T12:39:46.068Z,3.90
2018-08-19T12:42:14.798Z,4.27
2018-08-19T12:44:43.832Z,4.60
2018-08-19T12:47:16.906Z,3.83
2018-08-19T12:49:47.195Z,3.90
2018-08-19T12:52:17.675Z,4.47
2018-08-19T12:54:49.734Z,4.37
2018-08-19T12:57:18.267Z,5.00
2018-08-19T12:59:46.856Z,4.40
2018-08-19T13:02:15.317Z,4.90
2018-08-19T13:04:44.273Z,4.83
2018-08-19T13:07:13.946Z,4.80
2018-08-19T13:09:43.811Z,5.27
2018-08-19T13:12:13.091Z,4.60
2018-08-19T13:14:41.609Z,4.60
2018-08-19T13:17:10.103Z,4.40
2018-08-19T13:19:38.627Z,4.23
2018-08-19T13:22:07.221Z,4.63
2018-08-19T13:24:36.416Z,4.23
2018-08-19T13:27:05.473Z,4.83
2018-08-19T13:29:34.534Z,4.80
2018-08-19T13:32:03.223Z,4.67
2018-08-19T13:34:31.736Z,4.50
2018-08-19T13:37:00.581Z,5.03
2018-08-19T13:39:29.425Z,4.67
2018-08-19T13:41:58.053Z,4.60
2018-08-19T13:44:26.556Z,4.37
2018-08-19T13:46:55.095Z,4.33
2018-08-19T13:49:28.154Z,4.70
2018-08-19T13:52:01.583Z,4.53
2018-08-19T13:54:30.146Z,4.80
2018-08-19T13:56:58.730Z,5.33
2018-08-19T13:59:27.425Z,4.70
2018-08-19T14:01:56.093Z,5.20
2018-08-19T14:04:24.374Z,4.67
2018-08-19T14:06:52.892Z,5.07
2018-08-19T14:09:21.426Z,5.53
2018-08-19T14:11:50.632Z,4.20
2018-08-19T14:14:19.191Z,4.40
2018-08-19T14:16:47.861Z,4.70
2018-08-19T14:19:16.378Z,4.17
2018-08-19T14:21:44.916Z,4.37
2018-08-19T14:24:13.423Z,4.87
2018-08-19T14:26:41.967Z,4.67
2018-08-19T14:29:10.562Z,4.73
2018-08-19T14:31:39.084Z,4.90
2018-08-19T14:34:07.673Z,5.13
2018-08-19T14:36:36.241Z,4.33
2018-08-19T14:39:05.756Z,4.30
2018-08-19T14:41:34.265Z,5.10
2018-08-19T14:44:04.003Z,4.00
2018-08-19T14:46:33.065Z,4.47
2018-08-19T14:49:03.036Z,4.60
2018-08-19T14:52:07.133Z,4.87
2018-08-19T14:54:35.724Z,4.40
2018-08-19T14:57:04.425Z,4.30
2018-08-19T14:59:32.925Z,4.10
2018-08-19T15:02:01.385Z,168.03
2018-08-19T15:04:29.956Z,88.70
2018-08-19T15:06:59.324Z,57.07
2018-08-19T15:09:32.959Z,32.53
2018-08-19T15:12:10.113Z,6.43
2018-08-19T15:14:38.775Z,5.43
2018-08-19T15:17:09.254Z,5.07
2018-08-19T15:19:41.488Z,4.70
2018-08-19T15:22:10.084Z,4.80
2018-08-19T15:24:38.796Z,4.00
2018-08-19T15:27:07.426Z,4.80
2018-08-19T15:29:38.627Z,4.50
2018-08-19T15:32:07.450Z,6.70
2018-08-19T15:34:35.792Z,6.17
2018-08-19T15:37:04.412Z,14.77
2018-08-19T15:39:33.335Z,8.30
2018-08-19T15:42:01.852Z,14.93
2018-08-19T15:44:31.430Z,6.90
2018-08-19T15:47:00.513Z,5.63
2018-08-19T15:49:29.099Z,9.67
2018-08-19T15:51:57.716Z,18.33
2018-08-19T15:54:26.272Z,18.97
2018-08-19T15:56:58.717Z,7.17
2018-08-19T15:59:27.520Z,4.97
2018-08-19T16:01:56.059Z,5.03
2018-08-19T16:04:24.891Z,4.97
2018-08-19T16:06:54.652Z,5.73
2018-08-19T16:09:25.094Z,5.90
2018-08-19T16:11:53.967Z,5.27
2018-08-19T16:14:23.625Z,5.10
2018-08-19T16:16:52.739Z,4.60
2018-08-19T16:19:22.414Z,4.90
2018-08-19T16:21:52.213Z,5.33
2018-08-19T16:24:20.998Z,5.97
2018-08-19T16:26:49.531Z,5.00
2018-08-19T16:29:18.126Z,5.00
2018-08-19T16:31:47.507Z,4.83
2018-08-19T16:34:15.687Z,5.17
2018-08-19T16:36:44.179Z,5.00
2018-08-19T16:39:14.753Z,4.70
2018-08-19T16:41:43.710Z,5.17
2018-08-19T16:44:13.041Z,5.07
2018-08-19T16:46:42.372Z,5.03
2018-08-19T16:49:10.915Z,5.10
2018-08-19T16:51:39.537Z,5.07
2018-08-19T16:54:08.521Z,4.67
2018-08-19T16:56:37.112Z,4.80
2018-08-19T16:59:05.725Z,5.60
2018-08-19T17:01:34.275Z,6.10
2018-08-19T17:04:02.874Z,4.70
2018-08-19T17:06:31.422Z,5.50
2018-08-19T17:09:00.082Z,5.27
2018-08-19T17:11:28.871Z,5.83
2018-08-19T17:13:59.834Z,4.90
2018-08-19T17:16:28.868Z,5.60
2018-08-19T17:18:57.499Z,4.97
2018-08-19T17:21:28.157Z,4.53
2018-08-19T17:24:04.025Z,4.40
2018-08-19T17:26:33.017Z,5.10
2018-08-19T17:29:08.387Z,4.60
2018-08-19T17:31:38.315Z,4.90
2018-08-19T17:34:17.405Z,5.20
2018-08-19T17:37:02.398Z,4.87
2018-08-19T17:39:38.091Z,5.30
2018-08-19T17:42:06.738Z,5.60
2018-08-19T17:44:41.478Z,4.80
2018-08-19T17:47:11.641Z,5.50
2018-08-19T17:49:43.374Z,6.00
2018-08-19T17:52:15.114Z,4.77
2018-08-19T17:54:50.352Z,6.30
2018-08-19T17:57:26.790Z,6.10
2018-08-19T18:00:01.753Z,6.07
2018-08-19T18:02:33.664Z,5.90
2018-08-19T18:05:05.110Z,6.17
2018-08-19T18:07:40.569Z,5.60
2018-08-19T18:10:13.120Z,5.53
2018-08-19T18:12:42.818Z,6.17
2018-08-19T18:15:16.623Z,5.77
2018-08-19T18:17:54.890Z,5.63
2018-08-19T18:20:33.915Z,6.80
2018-08-19T18:23:13.096Z,5.50
2018-08-19T18:25:43.270Z,5.53
2018-08-19T18:28:26.218Z,5.60
2018-08-19T18:31:07.288Z,6.47
2018-08-19T18:33:57.254Z,6.40
2018-08-19T18:36:27.017Z,6.40
2018-08-19T18:38:56.119Z,5.63
2018-08-19T18:41:34.987Z,8.17
2018-08-19T18:44:09.766Z,6.40
2018-08-19T18:46:41.395Z,5.60
2018-08-19T18:49:11.709Z,6.37
2018-08-19T18:51:41.527Z,7.70
2018-08-19T18:54:18.664Z,7.70
2018-08-19T18:56:47.364Z,7.30
2018-08-19T18:59:16.211Z,6.23
2018-08-19T19:01:44.844Z,6.90
2018-08-19T19:04:13.624Z,6.37
2018-08-19T19:06:43.656Z,6.40
2018-08-19T19:09:13.152Z,6.40
2018-08-19T19:11:41.779Z,7.13
2018-08-19T19:14:15.722Z,7.27
2018-08-19T19:16:46.583Z,6.37
2018-08-19T19:19:14.854Z,7.10
2018-08-19T19:21:46.398Z,6.63
2018-08-19T19:24:15.469Z,6.07
2018-08-19T19:26:44.365Z,7.10
2018-08-19T19:29:21.785Z,7.07
2018-08-19T19:31:53.828Z,6.90
2018-08-19T19:34:22.720Z,6.40
2018-08-19T19:36:52.935Z,6.60
2018-08-19T19:39:22.579Z,6.90
2018-08-19T19:41:56.428Z,8.07
2018-08-19T19:44:28.662Z,7.33
2018-08-19T19:46:57.448Z,7.03
2018-08-19T19:49:27.144Z,7.03
2018-08-19T19:52:02.403Z,7.70
2018-08-19T19:54:32.650Z,7.20
2018-08-19T19:57:01.766Z,6.13
2018-08-19T19:59:32.123Z,8.13
2018-08-19T20:02:00.773Z,7.23
2018-08-19T20:04:30.975Z,8.40
2018-08-19T20:06:59.666Z,7.30
2018-08-19T20:09:28.659Z,6.70
2018-08-19T20:11:57.594Z,8.17
2018-08-19T20:14:28.471Z,7.43
2018-08-19T20:16:57.579Z,7.40
2018-08-19T20:19:26.936Z,8.27
2018-08-19T20:21:55.769Z,8.40
2018-08-19T20:24:24.091Z,7.47
2018-08-19T20:26:53.130Z,7.60
2018-08-19T20:29:22.674Z,7.97
2018-08-19T20:31:52.159Z,7.50
2018-08-19T20:34:20.625Z,8.47
2018-08-19T20:36:49.399Z,8.50
2018-08-19T20:39:18.231Z,8.30
2018-08-19T20:41:46.753Z,8.90
2018-08-19T20:44:15.299Z,8.23
2018-08-19T20:46:48.800Z,8.37
2018-08-19T20:49:17.359Z,7.50
2018-08-19T20:51:46.025Z,8.47
2018-08-19T20:54:14.502Z,9.00
2018-08-19T20:56:43.502Z,8.37
2018-08-19T20:59:12.286Z,8.40
2018-08-19T21:01:40.823Z,8.27
2018-08-19T21:04:09.410Z,8.40
2018-08-19T21:06:37.991Z,9.00
2018-08-19T21:09:07.089Z,8.60
2018-08-19T21:11:35.625Z,8.93
2018-08-19T21:14:04.149Z,8.40
2018-08-19T21:16:33.586Z,8.63
2018-08-19T21:19:02.584Z,9.23
2018-08-19T21:21:31.268Z,8.77
2018-08-19T21:23:59.468Z,8.67
2018-08-19T21:26:28.061Z,8.93
2018-08-19T21:29:02.953Z,8.83
2018-08-19T21:31:32.377Z,8.90
2018-08-19T21:34:00.962Z,8.57
2018-08-19T21:36:29.187Z,8.13
2018-08-19T21:38:57.714Z,8.90
2018-08-19T21:41:41.819Z,8.63
2018-08-19T21:44:10.389Z,8.57
2018-08-19T21:46:38.842Z,8.87
2018-08-19T21:49:07.530Z,9.03
2018-08-19T21:51:36.045Z,8.80
2018-08-19T21:54:04.661Z,9.23
2018-08-19T21:56:33.160Z,9.73
2018-08-19T21:59:01.915Z,9.27
2018-08-19T22:01:34.537Z,9.03
2018-08-19T22:04:03.113Z,8.90
2018-08-19T22:06:31.523Z,8.70
2018-08-19T22:09:00.011Z,9.50
2018-08-19T22:11:28.468Z,10.30
2018-08-19T22:13:56.930Z,10.10
2018-08-19T22:16:25.433Z,9.70
2018-08-19T22:18:53.940Z,9.33
2018-08-19T22:21:23.846Z,10.37
2018-08-19T22:23:55.821Z,10.03
2018-08-19T22:26:24.257Z,9.23
2018-08-19T22:29:08.138Z,11.10
2018-08-19T22:31:36.567Z,8.97
2018-08-19T22:34:05.081Z,9.30
2018-08-19T22:36:33.540Z,9.47
2018-08-19T22:39:01.976Z,8.93
2018-08-19T22:41:32.893Z,9.43
2018-08-19T22:44:01.407Z,11.37
2018-08-19T22:46:29.976Z,8.40
2018-08-19T22:48:58.916Z,11.07
2018-08-19T22:51:32.810Z,9.60
2018-08-19T22:54:01.277Z,10.20
2018-08-19T22:56:29.514Z,10.67
2018-08-19T22:58:57.960Z,10.80
2018-08-19T23:01:32.037Z,9.47
2018-08-19T23:04:01.875Z,11.37
2018-08-19T23:06:30.723Z,10.37
2018-08-19T23:08:59.290Z,10.70
2018-08-19T23:11:36.514Z,10.70
2018-08-19T23:14:16.592Z,10.20
2018-08-19T23:16:44.893Z,10.00
2018-08-19T23:19:13.391Z,10.87
2018-08-19T23:21:41.811Z,11.60
2018-08-19T23:24:11.301Z,10.80
2018-08-19T23:26:39.800Z,11.30
2018-08-19T23:29:08.271Z,11.70
2018-08-19T23:31:36.729Z,11.00
2018-08-19T23:34:05.266Z,12.43
2018-08-19T23:36:33.901Z,12.33
2018-08-19T23:39:02.204Z,12.37
2018-08-19T23:41:30.312Z,11.83
2018-08-19T23:43:58.876Z,12.80
2018-08-19T23:46:27.405Z,13.43
2018-08-19T23:48:55.854Z,12.20
2018-08-19T23:51:29.992Z,13.60
2018-08-19T23:53:59.423Z,12.80
2018-08-19T23:56:28.277Z,12.23
2018-08-19T23:58:57.105Z,11.90
